Time;durP1;ratioP1;P1;durP2;ratioP2;P2;SDS_P1;SDS_P2;PMS_P1;PMS_P2;Temp;Humidity;BMP_temperature;BMP_pressure;BME280_temperature;BME280_humidity;BME280_pressure;Samples;Min_cycle;Max_cycle;Signal;HPM_P1;HPM_P2
2021/10/01 00:02:21;;;;;;;28.80;10.80;;;;;;;5.61;74.72;101504.91;113778;1198;22411;-77
2021/10/01 00:04:49;;;;;;;21.50;8.70;;;;;;;5.56;74.66;101507.66;113950;1198;22556;-80
2021/10/01 00:07:18;;;;;;;28.00;11.00;;;;;;;5.50;74.70;101504.55;114001;1198;22452;-80
2021/10/01 00:09:45;;;;;;;26.90;11.60;;;;;;;5.48;74.94;101507.11;114246;1198;25043;-80
2021/10/01 00:12:14;;;;;;;24.50;8.80;;;;;;;5.46;74.81;101507.38;113722;1198;22453;-80
2021/10/01 00:14:42;;;;;;;33.00;10.60;;;;;;;5.43;74.65;101506.32;113897;1198;22458;-80
2021/10/01 00:17:10;;;;;;;26.60;10.10;;;;;;;5.37;74.77;101509.23;114222;1198;22417;-79
2021/10/01 00:19:38;;;;;;;27.80;9.60;;;;;;;5.34;74.72;101504.11;114246;1198;22416;-81
2021/10/01 00:22:06;;;;;;;24.70;9.80;;;;;;;5.30;74.74;101505.83;113869;1198;23253;-79
2021/10/01 00:24:34;;;;;;;28.60;10.10;;;;;;;5.26;74.67;101502.08;113851;1198;24073;-78
2021/10/01 00:27:08;;;;;;;26.80;9.50;;;;;;;5.22;74.57;101506.39;114278;1191;24981;-80
2021/10/01 00:29:36;;;;;;;21.70;8.50;;;;;;;5.17;74.57;101506.36;113946;1198;22512;-79
2021/10/01 00:32:06;;;;;;;22.30;9.00;;;;;;;5.13;74.60;101503.16;113915;1198;23049;-78
2021/10/01 00:34:34;;;;;;;22.20;8.70;;;;;;;5.10;74.50;101507.55;113897;1198;23151;-80
2021/10/01 00:37:03;;;;;;;21.30;9.40;;;;;;;5.08;74.60;101499.66;113821;1198;24901;-80
2021/10/01 00:39:31;;;;;;;23.90;9.40;;;;;;;5.04;74.64;101496.14;114353;1198;25243;-79
2021/10/01 00:42:00;;;;;;;22.40;8.90;;;;;;;5.02;74.69;101492.05;113908;1198;23262;-77
2021/10/01 00:44:31;;;;;;;23.00;8.40;;;;;;;5.01;74.75;101482.73;113854;1198;22478;-78
2021/10/01 00:47:00;;;;;;;24.30;8.20;;;;;;;5.00;74.93;101484.65;113888;1198;22562;-79
2021/10/01 00:49:27;;;;;;;17.40;6.60;;;;;;;4.98;75.06;101483.00;113928;1199;25090;-79
2021/10/01 00:51:56;;;;;;;21.00;5.70;;;;;;;4.98;75.19;101479.04;113821;1198;25042;-79
2021/10/01 00:54:25;;;;;;;14.70;4.70;;;;;;;4.99;75.38;101477.08;113888;1184;24130;-79
2021/10/01 00:56:55;;;;;;;20.30;6.50;;;;;;;4.98;75.50;101478.02;113960;1198;22461;-80
2021/10/01 00:59:23;;;;;;;15.30;5.70;;;;;;;4.96;75.45;101475.66;114053;1191;24025;-77
2021/10/01 01:01:51;;;;;;;18.70;6.30;;;;;;;4.94;75.43;101473.47;113916;1198;22555;-78
2021/10/01 01:04:20;;;;;;;19.30;6.00;;;;;;;4.92;75.53;101466.44;113840;1197;22444;-80
2021/10/01 01:06:52;;;;;;;14.90;5.20;;;;;;;4.90;75.57;101464.81;113894;1198;22457;-79
2021/10/01 01:09:33;;;;;;;15.00;4.60;;;;;;;4.89;75.55;101462.21;114034;1198;25107;-79
2021/10/01 01:12:21;;;;;;;17.30;5.60;;;;;;;4.89;75.62;101461.73;113968;1198;26473;-79
2021/10/01 01:14:54;;;;;;;18.50;5.80;;;;;;;4.88;75.83;101466.27;114013;1198;23037;-78
2021/10/01 01:17:27;;;;;;;14.60;4.80;;;;;;;4.87;75.80;101466.66;113966;1198;22459;-78
2021/10/01 01:20:09;;;;;;;20.60;5.30;;;;;;;4.86;75.90;101464.78;113759;1198;22456;-82
2021/10/01 01:22:48;;;;;;;18.40;5.30;;;;;;;4.83;75.82;101464.09;113830;1184;22439;-82
2021/10/01 01:25:43;;;;;;;14.80;5.30;;;;;;;4.80;75.80;101463.41;113821;1198;25067;-78
2021/10/01 01:28:13;;;;;;;16.90;5.00;;;;;;;4.77;75.65;101461.70;113705;1199;22638;-79
2021/10/01 01:30:43;;;;;;;13.30;4.50;;;;;;;4.74;75.54;101457.70;114039;1199;25012;-80
2021/10/01 01:33:15;;;;;;;15.30;5.50;;;;;;;4.70;75.51;101453.48;115095;1198;22423;-79
2021/10/01 01:35:44;;;;;;;17.40;4.70;;;;;;;4.67;75.47;101449.39;115125;1198;22784;-80
2021/10/01 01:38:17;;;;;;;18.40;5.50;;;;;;;4.64;75.50;101447.45;114658;1199;22497;-78
2021/10/01 01:40:50;;;;;;;15.70;4.20;;;;;;;4.61;75.48;101448.10;113650;1199;22461;-79
2021/10/01 01:43:18;;;;;;;18.60;6.20;;;;;;;4.59;75.49;101444.65;113648;1199;22564;-77
2021/10/01 01:45:48;;;;;;;20.00;6.20;;;;;;;4.56;75.55;101446.33;113699;1199;24597;-82
2021/10/01 01:48:17;;;;;;;17.60;5.70;;;;;;;4.53;75.62;101443.35;114137;1199;25112;-78
2021/10/01 01:50:47;;;;;;;17.10;5.20;;;;;;;4.51;75.59;101445.73;114038;1199;22525;-79
2021/10/01 01:53:19;;;;;;;17.20;5.60;;;;;;;4.50;75.66;101441.48;113765;1193;24060;-78
2021/10/01 01:55:48;;;;;;;18.40;5.00;;;;;;;4.48;75.81;101442.61;113997;1192;22454;-78
2021/10/01 01:58:18;;;;;;;15.00;4.90;;;;;;;4.46;75.87;101441.92;113909;1192;25039;-78
2021/10/01 02:00:47;;;;;;;18.70;5.90;;;;;;;4.43;75.82;101442.89;113834;1169;98403;-59
2021/10/01 02:03:16;;;;;;;16.30;4.80;;;;;;;4.42;75.80;101447.41;112971;1193;22701;-59
2021/10/01 02:05:49;;;;;;;16.70;5.60;;;;;;;4.40;75.67;101451.21;113087;1198;22427;-58
2021/10/01 02:08:19;;;;;;;17.10;5.00;;;;;;;4.38;75.72;101446.16;113051;1198;22438;-61
2021/10/01 02:10:48;;;;;;;20.70;6.40;;;;;;;4.36;75.81;101447.92;113130;1198;22496;-59
2021/10/01 02:13:19;;;;;;;17.50;5.20;;;;;;;4.34;75.82;101447.80;113101;1192;22442;-59
2021/10/01 02:15:51;;;;;;;18.30;5.50;;;;;;;4.30;75.78;101445.14;112991;1198;22425;-59
2021/10/01 02:18:23;;;;;;;18.20;5.20;;;;;;;4.27;75.86;101444.52;113118;1198;22435;-59
2021/10/01 02:20:55;;;;;;;16.90;6.00;;;;;;;4.24;75.77;101441.23;113063;1193;25139;-58
2021/10/01 02:23:24;;;;;;;16.10;5.40;;;;;;;4.24;75.70;101445.50;113061;1198;24084;-59
2021/10/01 02:28:47;;;;;;;19.60;5.90;;;;;;;4.20;75.92;101448.92;112976;1193;22549;-59
2021/10/01 02:31:22;;;;;;;19.40;5.80;;;;;;;4.17;76.10;101451.63;113040;1193;22458;-59
2021/10/01 02:33:52;;;;;;;19.30;5.70;;;;;;;4.15;76.01;101448.72;113103;1198;25078;-59
2021/10/01 02:36:20;;;;;;;18.10;5.70;;;;;;;4.12;75.94;101444.33;112902;1193;24269;-59
2021/10/01 02:38:51;;;;;;;17.80;6.60;;;;;;;4.10;75.96;101444.58;113028;1198;22619;-59
2021/10/01 02:41:19;;;;;;;22.00;6.60;;;;;;;4.07;75.84;101442.95;113125;1198;22780;-59
2021/10/01 02:43:47;;;;;;;16.70;5.50;;;;;;;4.07;75.97;101440.58;112798;1200;25129;-58
2021/10/01 02:46:16;;;;;;;18.50;6.20;;;;;;;4.06;76.06;101440.03;112746;1200;22490;-60
2021/10/01 02:48:45;;;;;;;19.20;6.70;;;;;;;4.05;76.20;101439.10;112770;1199;25118;-58
2021/10/01 02:51:23;;;;;;;19.40;6.20;;;;;;;4.03;76.16;101439.48;112927;1199;25065;-58
2021/10/01 02:53:59;;;;;;;22.10;6.90;;;;;;;4.01;76.21;101436.66;112814;1198;24031;-58
2021/10/01 02:56:35;;;;;;;22.80;7.50;;;;;;;3.99;76.23;101433.37;112986;1198;22433;-61
2021/10/01 02:59:04;;;;;;;19.00;6.00;;;;;;;3.97;76.32;101430.06;112868;1198;26443;-59
2021/10/01 03:01:36;;;;;;;18.60;6.20;;;;;;;3.95;76.31;101431.40;113140;1198;22728;-59
2021/10/01 03:04:07;;;;;;;19.30;6.50;;;;;;;3.96;76.33;101430.86;113067;1198;25042;-59
2021/10/01 03:06:40;;;;;;;20.10;7.30;;;;;;;3.95;76.57;101423.92;113083;1198;22416;-58
2021/10/01 03:09:10;;;;;;;21.60;6.40;;;;;;;3.94;76.74;101425.82;113111;1198;22445;-58
2021/10/01 03:11:40;;;;;;;18.00;5.60;;;;;;;3.96;76.93;101428.96;113173;1198;25138;-59
2021/10/01 03:14:09;;;;;;;19.70;6.10;;;;;;;3.97;77.08;101426.59;113208;1193;22458;-59
2021/10/01 03:16:40;;;;;;;20.90;6.10;;;;;;;3.98;77.11;101426.18;113012;1198;22436;-59
2021/10/01 03:19:08;;;;;;;18.60;5.30;;;;;;;3.96;77.02;101426.67;113068;1198;23859;-59
2021/10/01 03:21:38;;;;;;;19.10;6.00;;;;;;;3.92;76.96;101427.48;113146;1198;25165;-59
2021/10/01 03:24:08;;;;;;;19.10;5.50;;;;;;;3.90;76.86;101426.41;113330;1198;25180;-58
2021/10/01 03:26:35;;;;;;;;;;;;;;;3.88;76.85;101426.34;113198;1198;24087;-58
2021/10/01 03:29:05;;;;;;;18.40;5.30;;;;;;;3.85;76.88;101424.45;113101;1198;22566;-59
2021/10/01 03:31:33;;;;;;;18.50;6.00;;;;;;;3.83;76.84;101430.08;113115;1198;22414;-59
2021/10/01 03:34:01;;;;;;;19.40;6.10;;;;;;;3.82;76.78;101424.71;113089;1198;25182;-59
2021/10/01 03:36:30;;;;;;;16.80;5.90;;;;;;;3.78;76.80;101422.21;113020;1198;22423;-59
2021/10/01 03:38:58;;;;;;;21.20;6.10;;;;;;;3.76;76.79;101418.61;113261;1198;22836;-59
2021/10/01 03:41:27;;;;;;;19.80;7.50;;;;;;;3.74;76.70;101416.02;113495;1198;25040;-59
2021/10/01 03:43:58;;;;;;;20.50;7.60;;;;;;;3.72;76.86;101416.65;113352;1192;25394;-59
2021/10/01 03:46:27;;;;;;;23.10;7.80;;;;;;;3.71;76.88;101418.56;113298;1198;22552;-58
2021/10/01 03:48:57;;;;;;;22.20;8.10;;;;;;;3.69;77.00;101418.56;113265;1198;22482;-58
2021/10/01 03:51:25;;;;;;;23.10;8.50;;;;;;;3.68;77.11;101417.17;113564;1198;24115;-59
2021/10/01 03:53:54;;;;;;;24.40;9.60;;;;;;;3.66;77.19;101418.66;113310;1198;22525;-58
2021/10/01 03:56:22;;;;;;;21.90;7.60;;;;;;;3.64;77.12;101416.38;113276;1198;25139;-59
2021/10/01 03:58:51;;;;;;;23.00;8.30;;;;;;;3.62;77.08;101415.14;113040;1183;24069;-58
2021/10/01 04:01:19;;;;;;;23.40;8.80;;;;;;;3.60;77.11;101415.61;113165;1198;22661;-59
2021/10/01 04:03:47;;;;;;;23.60;9.20;;;;;;;3.58;77.02;101419.73;113100;1198;22552;-58
2021/10/01 04:06:16;;;;;;;20.10;8.00;;;;;;;3.56;76.95;101419.67;112717;1198;22414;-61
2021/10/01 04:08:46;;;;;;;25.10;10.10;;;;;;;3.54;76.95;101416.52;113190;1193;25009;-59
2021/10/01 04:11:14;;;;;;;18.40;6.60;;;;;;;3.53;77.00;101415.34;113051;1198;24086;-58
2021/10/01 04:13:45;;;;;;;19.50;7.20;;;;;;;3.52;76.92;101414.33;113095;1198;22472;-59
2021/10/01 04:16:13;;;;;;;19.60;7.50;;;;;;;3.51;76.88;101413.07;112999;1183;24082;-60
2021/10/01 04:18:42;;;;;;;20.00;7.60;;;;;;;3.49;77.02;101413.16;112856;1198;25106;-58
2021/10/01 04:21:10;;;;;;;18.40;6.90;;;;;;;3.49;77.09;101413.09;112911;1199;25259;-59
2021/10/01 04:23:41;;;;;;;23.90;7.70;;;;;;;3.47;77.20;101412.54;112897;1198;22439;-61
2021/10/01 04:26:09;;;;;;;19.20;6.80;;;;;;;3.47;77.34;101409.94;112893;1199;23789;-59
2021/10/01 04:28:37;;;;;;;20.10;7.00;;;;;;;3.46;77.51;101409.85;112844;1198;25065;-60
2021/10/01 04:31:06;;;;;;;21.60;7.70;;;;;;;3.46;77.53;101410.02;112866;1198;22584;-58
2021/10/01 04:33:35;;;;;;;22.40;7.40;;;;;;;3.46;77.54;101406.93;112889;1198;25824;-61
2021/10/01 04:36:07;;;;;;;22.50;7.90;;;;;;;3.45;77.56;101410.19;112992;1199;24254;-60
2021/10/01 04:38:36;;;;;;;23.20;8.00;;;;;;;3.43;77.47;101409.56;112852;1199;22426;-60
2021/10/01 04:41:04;;;;;;;20.40;7.70;;;;;;;3.42;77.33;101413.35;112809;1186;24165;-60
2021/10/01 04:43:34;;;;;;;22.10;8.80;;;;;;;3.40;77.48;101411.88;112725;1199;22444;-63
2021/10/01 04:46:03;;;;;;;28.10;8.90;;;;;;;3.40;77.36;101416.28;112947;1199;22423;-60
2021/10/01 04:48:32;;;;;;;22.60;8.70;;;;;;;3.37;77.28;101414.23;112885;1199;22440;-62
2021/10/01 04:51:00;;;;;;;23.90;7.60;;;;;;;3.38;77.52;101417.23;112887;1199;25129;-61
2021/10/01 04:53:28;;;;;;;23.60;8.00;;;;;;;3.35;77.38;101413.70;112686;1199;25232;-60
2021/10/01 04:55:57;;;;;;;26.40;8.40;;;;;;;3.34;77.51;101411.98;112946;1199;22402;-61
2021/10/01 04:58:26;;;;;;;21.30;7.80;;;;;;;3.33;77.58;101411.91;113073;1198;23944;-61
2021/10/01 05:00:54;;;;;;;20.90;7.00;;;;;;;3.33;77.47;101414.35;112972;1199;22473;-60
2021/10/01 05:03:23;;;;;;;19.70;7.10;;;;;;;3.32;77.46;101411.20;112755;1176;22448;-60
2021/10/01 05:05:51;;;;;;;23.20;8.20;;;;;;;3.31;77.51;101409.31;113027;1193;22576;-60
2021/10/01 05:08:20;;;;;;;21.60;7.10;;;;;;;3.30;77.57;101411.98;113005;1199;24205;-61
2021/10/01 05:10:49;;;;;;;23.80;8.10;;;;;;;3.30;77.67;101410.33;112856;1199;22448;-61
2021/10/01 05:13:18;;;;;;;19.80;7.70;;;;;;;3.29;77.79;101413.17;112646;1193;22441;-60
2021/10/01 05:15:48;;;;;;;23.90;8.60;;;;;;;3.30;77.88;101416.56;112607;1192;22436;-61
2021/10/01 05:18:16;;;;;;;;;;;;;;;3.31;78.04;101415.85;117105;1198;22357;-61
2021/10/01 05:20:45;;;;;;;24.60;7.10;;;;;;;3.33;78.25;101416.64;117180;1198;22171;-61
2021/10/01 05:23:14;;;;;;;20.00;7.40;;;;;;;3.33;78.24;101410.80;117222;1198;22371;-61
2021/10/01 05:25:42;;;;;;;18.90;6.60;;;;;;;3.37;78.42;101414.24;115620;1198;22408;-60
2021/10/01 05:28:10;;;;;;;23.90;6.00;;;;;;;3.40;78.41;101409.81;113135;1198;24163;-61
2021/10/01 05:30:40;;;;;;;20.10;6.80;;;;;;;3.44;78.54;101409.23;113041;1198;24873;-60
2021/10/01 05:33:11;;;;;;;20.20;6.50;;;;;;;3.47;78.65;101414.66;113075;1198;22430;-61
2021/10/01 05:35:45;;;;;;;19.90;6.90;;;;;;;3.51;78.74;101410.48;113059;1193;22468;-61
2021/10/01 05:38:14;;;;;;;22.20;6.70;;;;;;;3.54;78.93;101413.36;113139;1198;25116;-61
2021/10/01 05:40:42;;;;;;;23.60;6.60;;;;;;;3.58;79.02;101414.60;113308;1198;22746;-60
2021/10/01 05:43:10;;;;;;;20.00;6.50;;;;;;;3.62;79.14;101413.79;113069;1198;23245;-61
2021/10/01 05:45:40;;;;;;;20.90;6.90;;;;;;;3.65;79.26;101413.45;113131;1198;25440;-60
2021/10/01 05:48:11;;;;;;;19.90;7.90;;;;;;;3.71;79.45;101416.59;114507;1198;22475;-61
2021/10/01 05:50:42;;;;;;;19.20;7.90;;;;;;;3.77;79.53;101418.98;113033;1198;22471;-62
2021/10/01 05:53:25;;;;;;;25.90;7.80;;;;;;;3.82;79.67;101421.33;112930;1198;25105;-61
2021/10/01 05:55:53;;;;;;;18.50;6.60;;;;;;;3.87;79.90;101419.08;113082;1198;23236;-62
2021/10/01 05:58:21;;;;;;;21.10;7.70;;;;;;;3.92;80.00;101416.91;113054;1198;22834;-62
2021/10/01 06:00:50;;;;;;;23.50;8.00;;;;;;;3.97;80.15;101417.66;113151;1198;24054;-61
2021/10/01 06:03:18;;;;;;;21.90;7.90;;;;;;;4.03;80.34;101422.45;113169;1198;22458;-61
2021/10/01 06:05:47;;;;;;;26.40;8.00;;;;;;;4.08;80.29;101419.88;113284;1198;22718;-62
2021/10/01 06:08:16;;;;;;;27.30;8.70;;;;;;;4.14;80.61;101416.84;113076;1198;22553;-61
2021/10/01 06:10:44;;;;;;;23.40;9.30;;;;;;;4.18;80.58;101413.48;113402;1198;25180;-61
2021/10/01 06:13:13;;;;;;;24.50;9.40;;;;;;;4.25;80.91;101409.71;113111;1198;22453;-60
2021/10/01 06:15:41;;;;;;;26.50;11.10;;;;;;;4.31;81.01;101408.16;113050;1198;22472;-63
2021/10/01 06:18:09;;;;;;;25.10;10.40;;;;;;;4.40;81.24;101412.59;113130;1193;24084;-62
2021/10/01 06:20:37;;;;;;;26.40;11.10;;;;;;;4.47;81.45;101411.96;113247;1198;22599;-61
2021/10/01 06:23:06;;;;;;;26.40;11.00;;;;;;;4.53;81.41;101410.33;113071;1198;22471;-61
2021/10/01 06:25:34;;;;;;;27.40;11.50;;;;;;;4.60;81.55;101403.86;113121;1198;25123;-60
2021/10/01 06:28:03;;;;;;;26.00;10.80;;;;;;;4.69;81.76;101407.09;113172;1198;22962;-61
2021/10/01 06:30:31;;;;;;;28.40;9.20;;;;;;;4.79;81.99;101409.98;113288;1198;22482;-60
2021/10/01 06:32:59;;;;;;;25.10;9.70;;;;;;;4.88;82.16;101414.63;113075;1198;24311;-60
2021/10/01 06:35:28;;;;;;;22.80;9.30;;;;;;;4.98;82.21;101413.58;113100;1198;22501;-58
2021/10/01 06:37:56;;;;;;;27.00;10.40;;;;;;;5.06;82.37;101413.00;113015;1193;22438;-60
2021/10/01 06:40:24;;;;;;;25.00;9.80;;;;;;;5.15;82.49;101411.55;113480;1198;22440;-57
2021/10/01 06:42:55;;;;;;;26.50;11.10;;;;;;;5.25;82.70;101416.11;113755;1198;26297;-59
2021/10/01 06:45:24;;;;;;;;;;;;;;;5.35;82.95;101414.46;113256;1198;22492;-58
2021/10/01 06:47:58;;;;;;;22.50;9.10;;;;;;;5.47;83.28;101413.91;113033;1198;24182;-61
2021/10/01 06:50:43;;;;;;;26.70;10.40;;;;;;;5.59;83.26;101412.56;112925;1177;22457;-58
2021/10/01 08:19:25;;;;;;;14.30;3.90;;;;;;;9.13;83.14;101396.13;112273;1197;25185;-57
2021/10/01 08:21:56;;;;;;;11.60;4.30;;;;;;;9.26;82.92;101399.43;112789;1201;25023;-58
2021/10/01 08:24:26;;;;;;;17.70;3.90;;;;;;;9.36;82.56;101396.73;113028;1201;24157;-59
2021/10/01 08:26:55;;;;;;;14.70;4.00;;;;;;;9.48;82.40;101394.29;112830;1193;22432;-58
2021/10/01 08:29:24;;;;;;;13.50;3.90;;;;;;;9.65;82.49;101394.41;112770;1195;26344;-59
2021/10/01 08:31:59;;;;;;;13.30;4.60;;;;;;;9.73;82.16;101390.49;112858;1201;22444;-58
2021/10/01 08:34:28;;;;;;;14.50;4.30;;;;;;;9.84;82.01;101391.84;112665;1201;25122;-59
2021/10/01 08:36:57;;;;;;;15.80;5.80;;;;;;;9.99;81.97;101392.16;112766;1201;22454;-59
2021/10/01 08:39:26;;;;;;;16.60;6.00;;;;;;;10.09;81.82;101388.48;113014;1186;25802;-59
2021/10/01 08:41:55;;;;;;;16.10;6.30;;;;;;;10.21;81.78;101386.44;112638;1201;22449;-58
2021/10/01 08:44:28;;;;;;;17.70;6.30;;;;;;;10.33;81.71;101381.50;113203;1179;24998;-63
2021/10/01 08:46:59;;;;;;;15.30;6.40;;;;;;;10.41;81.34;101379.45;112528;1200;24140;-63
2021/10/01 08:49:29;;;;;;;21.20;7.40;;;;;;;10.56;81.24;101375.66;113143;1200;22441;-61
2021/10/01 08:51:58;;;;;;;16.90;7.10;;;;;;;10.75;81.25;101375.98;114655;1200;24055;-63
2021/10/01 08:54:27;;;;;;;18.00;7.30;;;;;;;10.89;80.76;101371.55;113145;1193;22518;-63
2021/10/01 08:56:55;;;;;;;16.90;7.30;;;;;;;11.02;80.38;101367.95;112575;1200;24102;-62
2021/10/01 08:59:23;;;;;;;17.80;7.00;;;;;;;11.13;80.08;101369.48;112611;1200;24136;-62
2021/10/01 09:01:51;;;;;;;19.50;8.00;;;;;;;11.23;80.02;101362.79;112488;1200;22807;-63
2021/10/01 09:04:20;;;;;;;19.00;7.90;;;;;;;11.32;79.77;101361.29;112993;1193;24099;-63
2021/10/01 09:06:49;;;;;;;16.80;7.70;;;;;;;11.43;79.46;101359.05;112866;1200;24100;-63
2021/10/01 09:09:18;;;;;;;17.20;7.10;;;;;;;11.52;79.22;101359.65;113005;1200;24165;-62
2021/10/01 09:11:47;;;;;;;17.20;6.50;;;;;;;11.63;79.13;101355.56;113034;1200;25128;-62
2021/10/01 09:14:21;;;;;;;22.30;6.30;;;;;;;11.75;79.03;101349.41;112628;1200;24074;-62
2021/10/01 09:16:50;;;;;;;13.20;3.90;;;;;;;11.91;78.50;101349.41;112598;1200;22456;-62
2021/10/01 09:19:20;;;;;;;13.90;5.50;;;;;;;12.05;78.00;101349.21;113497;1200;24099;-62
2021/10/01 09:21:52;;;;;;;14.80;5.50;;;;;;;12.21;77.96;101343.84;112878;1187;24032;-62
2021/10/01 09:24:27;;;;;;;13.10;4.00;;;;;;;12.27;77.65;101341.67;113027;1200;22429;-62
2021/10/01 09:26:57;;;;;;;11.40;3.40;;;;;;;12.36;77.49;101336.80;112908;1200;22438;-62
2021/10/01 09:29:27;;;;;;;11.50;3.50;;;;;;;12.46;77.28;101334.45;112839;1185;24109;-62
2021/10/01 09:31:56;;;;;;;13.80;4.70;;;;;;;12.56;76.98;101330.66;112829;1193;22466;-62
2021/10/01 09:34:35;;;;;;;13.50;3.40;;;;;;;12.62;76.51;101331.44;112713;1199;22651;-62
2021/10/01 09:37:06;;;;;;;10.10;2.80;;;;;;;12.69;76.16;101326.95;112879;1200;22429;-62
2021/10/01 09:39:37;;;;;;;7.30;2.20;;;;;;;12.80;75.60;101323.27;112628;1200;22444;-61
2021/10/01 09:42:16;;;;;;;15.50;2.80;;;;;;;12.91;75.39;101318.18;112878;1194;25094;-61
2021/10/01 09:44:48;;;;;;;7.20;2.00;;;;;;;13.00;75.07;101319.69;112758;1200;22819;-62
2021/10/01 09:47:21;;;;;;;8.90;1.90;;;;;;;13.06;74.77;101316.29;112809;1200;23110;-61
2021/10/01 09:49:56;;;;;;;9.20;1.80;;;;;;;13.10;73.97;101313.85;112753;1193;24038;-61
2021/10/01 09:52:25;;;;;;;9.50;2.10;;;;;;;13.18;73.38;101307.59;112767;1200;22997;-62
2021/10/01 09:55:06;;;;;;;10.90;1.80;;;;;;;13.26;72.99;101305.14;112784;1199;22455;-61
2021/10/01 09:57:39;;;;;;;13.00;1.90;;;;;;;13.35;72.87;101308.89;112869;1200;22523;-61
2021/10/01 10:00:29;;;;;;;8.60;1.70;;;;;;;13.43;72.50;101308.52;112797;1193;22552;-61
2021/10/01 10:02:58;;;;;;;7.40;1.60;;;;;;;13.48;71.95;101307.73;112669;1200;23339;-62
2021/10/01 10:05:57;;;;;;;7.80;1.70;;;;;;;13.54;71.73;101301.65;112828;1200;25042;-62
2021/10/01 10:08:28;;;;;;;7.60;1.40;;;;;;;13.62;71.57;101299.30;112684;1199;23661;-61
2021/10/01 10:10:57;;;;;;;8.50;1.50;;;;;;;13.71;70.93;101298.95;112852;1193;22485;-61
2021/10/01 10:13:43;;;;;;;9.50;1.70;;;;;;;13.80;70.50;101295.23;112701;1193;24964;-61
2021/10/01 10:16:14;;;;;;;7.50;1.30;;;;;;;13.88;70.07;101293.71;112830;1200;22445;-62
2021/10/01 10:18:43;;;;;;;8.80;1.10;;;;;;;13.92;69.83;101286.86;113025;1200;22554;-62
2021/10/01 10:21:12;;;;;;;4.90;1.00;;;;;;;13.92;69.11;101284.16;113017;1193;25160;-62
2021/10/01 10:23:42;;;;;;;6.60;1.10;;;;;;;13.94;68.35;101282.98;112768;1200;22441;-61
2021/10/01 10:26:14;;;;;;;3.70;0.80;;;;;;;13.98;67.46;101276.69;112847;1199;25390;-61
2021/10/01 10:28:45;;;;;;;4.80;0.80;;;;;;;14.03;67.13;101277.55;112797;1200;22449;-62
2021/10/01 10:31:17;;;;;;;5.20;0.90;;;;;;;14.09;67.24;101275.95;112695;1200;22441;-62
2021/10/01 10:33:48;;;;;;;6.20;1.00;;;;;;;14.11;67.19;101271.14;113018;1193;24206;-62
2021/10/01 10:36:32;;;;;;;5.80;1.00;;;;;;;14.11;66.63;101262.62;112949;1200;22895;-61
2021/10/01 10:39:38;;;;;;;6.20;1.30;;;;;;;14.14;66.72;101256.39;112984;1193;22437;-61
2021/10/01 10:42:09;;;;;;;5.60;1.00;;;;;;;14.17;66.19;101253.10;112388;1196;25312;-61
2021/10/01 10:44:45;;;;;;;6.70;1.10;;;;;;;14.22;66.07;101246.10;112450;1197;22449;-62
2021/10/01 10:48:01;;;;;;;5.90;1.30;;;;;;;14.27;65.93;101244.23;112447;1203;22460;-62
2021/10/01 10:50:50;;;;;;;7.40;1.00;;;;;;;14.31;65.52;101237.71;112486;1203;25001;-62
2021/10/01 10:53:35;;;;;;;4.40;0.80;;;;;;;14.40;64.58;101233.55;112568;1196;22434;-61
2021/10/01 10:56:19;;;;;;;10.30;0.90;;;;;;;14.48;64.45;101230.23;112426;1196;26376;-61
2021/10/01 10:58:52;;;;;;;5.20;0.90;;;;;;;14.51;64.13;101222.11;112543;1203;24157;-62
2021/10/01 11:01:36;;;;;;;3.90;0.80;;;;;;;14.58;64.18;101223.52;112564;1203;23151;-61
2021/10/01 11:04:38;;;;;;;11.70;0.80;;;;;;;14.61;63.65;101216.98;112755;1203;24056;-62
2021/10/01 11:07:08;;;;;;;4.20;0.90;;;;;;;14.67;63.12;101209.28;112308;1196;25144;-61
2021/10/01 11:09:39;;;;;;;7.20;1.10;;;;;;;14.73;63.32;101210.34;112333;1202;24286;-61
2021/10/01 11:12:26;;;;;;;12.30;1.80;;;;;;;14.77;63.27;101205.88;112572;1202;25299;-62
2021/10/01 11:15:17;;;;;;;6.50;1.00;;;;;;;14.78;62.83;101200.16;112500;1202;24142;-62
2021/10/01 11:18:13;;;;;;;8.50;0.70;;;;;;;14.79;62.06;101201.00;112752;1202;23429;-62
2021/10/01 11:20:42;;;;;;;5.80;0.70;;;;;;;14.87;61.76;101201.60;113372;1200;24164;-63
2021/10/01 11:23:18;;;;;;;5.40;0.90;;;;;;;14.91;61.76;101196.71;112861;1200;22586;-63
2021/10/01 11:25:49;;;;;;;7.40;0.80;;;;;;;14.99;61.32;101199.72;112859;1199;22481;-62
2021/10/01 11:28:30;;;;;;;6.40;0.80;;;;;;;15.05;60.59;101198.08;112976;1193;22549;-61
2021/10/01 11:30:59;;;;;;;5.20;0.90;;;;;;;15.10;60.17;101192.33;112859;1200;25041;-62
2021/10/01 11:33:27;;;;;;;2.60;0.60;;;;;;;15.13;60.03;101186.06;113008;1200;22459;-62
2021/10/01 11:35:57;;;;;;;3.40;0.60;;;;;;;15.14;59.53;101185.42;112653;1200;22637;-62
2021/10/01 11:38:28;;;;;;;5.00;0.70;;;;;;;15.16;59.53;101187.20;112825;1200;22453;-62
2021/10/01 11:41:09;;;;;;;2.10;0.50;;;;;;;15.14;59.35;101183.33;112946;1200;25092;-61
2021/10/01 11:43:53;;;;;;;6.10;0.70;;;;;;;15.13;59.00;101177.33;112789;1200;22454;-62
2021/10/01 11:46:29;;;;;;;5.30;0.70;;;;;;;15.16;58.98;101174.71;112846;1200;22442;-62
2021/10/01 11:48:58;;;;;;;3.40;0.70;;;;;;;15.21;58.68;101171.56;112886;1200;25150;-61
2021/10/01 11:51:26;;;;;;;6.00;0.60;;;;;;;15.25;58.98;101166.94;113145;1200;26229;-62
2021/10/01 11:54:10;;;;;;;5.50;0.70;;;;;;;15.27;58.97;101168.70;112964;1200;24169;-62
2021/10/01 11:56:40;;;;;;;4.00;0.70;;;;;;;15.26;58.26;101165.36;112757;1200;22440;-62
2021/10/01 11:59:09;;;;;;;5.50;1.00;;;;;;;15.29;57.87;101158.65;112731;1193;24138;-61
2021/10/01 12:01:38;;;;;;;3.00;0.70;;;;;;;15.31;57.78;101155.25;112755;1193;22433;-61
2021/10/01 12:04:06;;;;;;;3.80;0.70;;;;;;;15.33;57.91;101148.07;112717;1200;22900;-61
2021/10/01 12:06:35;;;;;;;5.70;1.00;;;;;;;15.34;57.50;101149.56;112777;1200;22433;-62
2021/10/01 12:09:07;;;;;;;3.50;0.60;;;;;;;15.37;57.36;101146.70;112914;1198;22563;-62
2021/10/01 12:11:38;;;;;;;6.10;0.80;;;;;;;15.40;57.30;101143.75;112917;1200;24030;-61
2021/10/01 12:14:14;;;;;;;5.40;0.70;;;;;;;15.45;56.98;101136.43;112924;1200;22436;-62
2021/10/01 12:16:56;;;;;;;3.30;0.60;;;;;;;15.50;57.07;101140.03;112815;1200;24019;-62
2021/10/01 12:19:26;;;;;;;3.30;0.70;;;;;;;15.51;57.05;101137.79;112940;1193;25158;-63
2021/10/01 12:22:04;;;;;;;4.30;0.80;;;;;;;15.50;56.84;101136.92;112831;1193;25074;-63
2021/10/01 12:24:43;;;;;;;5.50;0.70;;;;;;;15.51;56.96;101133.00;112832;1200;22435;-63
2021/10/01 12:27:12;;;;;;;3.10;0.60;;;;;;;15.51;56.94;101123.44;112934;1200;24094;-64
2021/10/01 12:29:46;;;;;;;4.00;0.80;;;;;;;15.52;56.73;101120.58;112887;1200;22514;-63
2021/10/01 12:32:16;;;;;;;5.70;0.80;;;;;;;15.56;56.33;101119.02;112768;1200;22466;-62
2021/10/01 12:34:51;;;;;;;5.50;0.80;;;;;;;15.58;56.05;101117.06;112861;1200;22429;-62
2021/10/01 12:37:21;;;;;;;4.70;0.70;;;;;;;15.58;56.20;101114.66;112801;1192;24150;-62
2021/10/01 12:39:52;;;;;;;4.50;0.80;;;;;;;15.60;56.33;101109.01;112825;1199;24071;-62
2021/10/01 12:42:23;;;;;;;5.50;0.60;;;;;;;15.64;55.78;101106.44;112790;1193;22841;-62
2021/10/01 12:45:00;;;;;;;5.70;0.70;;;;;;;15.65;55.17;101105.58;112928;1193;22445;-62
2021/10/01 12:47:32;;;;;;;4.10;0.90;;;;;;;15.64;54.98;101103.52;113121;1200;25016;-61
2021/10/01 12:50:02;;;;;;;5.70;0.80;;;;;;;15.65;55.32;101100.41;112864;1193;22450;-62
2021/10/01 12:52:30;;;;;;;;;;;;;;;15.65;55.65;101096.53;112883;1200;22408;-62
2021/10/01 12:55:01;;;;;;;5.10;0.60;;;;;;;15.64;55.42;101094.67;112742;1199;22747;-62
2021/10/01 12:57:36;;;;;;;4.10;0.60;;;;;;;15.66;54.56;101093.05;112762;1193;24181;-62
2021/10/01 13:00:18;;;;;;;5.30;0.50;;;;;;;15.67;54.07;101089.59;112834;1200;22431;-61
2021/10/01 13:02:49;;;;;;;5.70;0.80;;;;;;;15.68;54.34;101083.88;112942;1200;22441;-62
2021/10/01 13:05:23;;;;;;;6.50;0.70;;;;;;;15.71;54.44;101086.52;112874;1200;22434;-62
2021/10/01 13:08:08;;;;;;;4.30;0.80;;;;;;;15.73;53.94;101077.27;112753;1200;24055;-61